Time;durP1;ratioP1;P1;durP2;ratioP2;P2;SDS_P1;SDS_P2;PMS_P1;PMS_P2;Temp;Humidity;BMP_temperature;BMP_pressure;BME280_temperature;BME280_humidity;BME280_pressure;Samples;Min_cycle;Max_cycle;Signal;HPM_P1;HPM_P2
2022/09/08 00:01:43;;;;;;;7.90;3.70;;;;;;;13.40;37.39;100270.47;105983;1274;137578;-76
2022/09/08 00:04:15;;;;;;;7.70;3.40;;;;;;;13.38;37.40;100269.16;106127;1274;108918;-76
2022/09/08 00:06:47;;;;;;;6.60;3.50;;;;;;;13.36;37.45;100270.82;106017;1274;137909;-77
2022/09/08 00:09:19;;;;;;;7.00;3.20;;;;;;;13.34;37.58;100266.55;106033;1274;97846;-76
2022/09/08 00:11:51;;;;;;;10.90;3.60;;;;;;;13.34;37.63;100268.82;105973;1274;137944;-75
2022/09/08 00:14:24;;;;;;;5.70;3.40;;;;;;;13.31;37.69;100262.12;106024;1274;112459;-75
2022/09/08 00:16:56;;;;;;;8.20;3.40;;;;;;;13.29;37.68;100258.20;106058;1273;107802;-75
2022/09/08 00:19:28;;;;;;;7.50;3.60;;;;;;;13.28;37.64;100264.52;105912;1274;138015;-76
2022/09/08 00:22:00;;;;;;;6.50;3.50;;;;;;;13.26;37.68;100265.08;106131;1274;97877;-79
2022/09/08 00:24:33;;;;;;;8.50;3.20;;;;;;;13.26;37.83;100264.59;106057;1273;137948;-75
2022/09/08 00:27:05;;;;;;;7.80;3.10;;;;;;;13.24;37.87;100264.14;106110;1274;112533;-74
2022/09/08 00:29:37;;;;;;;11.20;3.50;;;;;;;13.22;37.77;100266.50;105935;1274;138138;-74
2022/09/08 00:32:09;;;;;;;8.90;3.40;;;;;;;13.22;37.83;100270.67;106068;1274;107439;-74
2022/09/08 00:34:41;;;;;;;7.00;3.40;;;;;;;13.21;37.85;100270.91;106058;1274;97944;-73
2022/09/08 00:37:14;;;;;;;8.10;3.10;;;;;;;13.20;37.95;100272.71;106043;1274;138039;-76
2022/09/08 00:39:46;;;;;;;9.00;3.50;;;;;;;13.19;37.99;100270.66;106143;1274;110660;-76
2022/09/08 00:42:18;;;;;;;7.50;4.10;;;;;;;13.17;37.92;100267.92;105924;1274;138097;-76
2022/09/08 00:44:50;;;;;;;6.30;3.50;;;;;;;13.16;37.91;100266.55;106061;1274;109073;-77
2022/09/08 00:47:26;;;;;;;10.50;3.80;;;;;;;13.15;38.04;100264.34;106078;1274;97935;-76
2022/09/08 00:50:03;;;;;;;8.20;3.70;;;;;;;13.13;38.12;100259.38;106063;1274;97836;-77
2022/09/08 00:52:41;;;;;;;6.40;3.70;;;;;;;13.10;38.20;100251.27;106015;1274;112635;-78
2022/09/08 00:55:14;;;;;;;8.50;3.30;;;;;;;13.08;38.14;100246.65;105889;1274;138130;-76
2022/09/08 00:57:46;;;;;;;7.80;3.20;;;;;;;13.06;38.19;100249.35;106088;1274;108940;-76
2022/09/08 01:00:20;;;;;;;8.20;3.20;;;;;;;13.04;38.19;100245.06;105930;1273;138015;-77
2022/09/08 01:02:52;;;;;;;7.70;4.00;;;;;;;13.03;38.30;100241.11;106124;1273;97851;-77
2022/09/08 01:05:30;;;;;;;6.20;3.10;;;;;;;13.02;38.38;100241.52;106088;1274;111509;-77
2022/09/08 01:13:57;;;;;;;5.20;3.10;;;;;;;12.96;38.53;100242.46;105955;1274;124182;-77
2022/09/08 01:16:27;;;;;;;;;;;;;;;12.95;38.63;100243.02;106076;1274;98048;-77
2022/09/08 01:18:59;;;;;;;8.40;3.20;;;;;;;12.94;38.56;100242.73;106003;1273;125045;-77
2022/09/08 01:21:39;;;;;;;5.70;3.30;;;;;;;12.92;38.70;100240.34;105994;1273;107840;-77
2022/09/08 01:24:26;;;;;;;7.50;3.10;;;;;;;12.91;38.68;100244.75;105959;1273;138254;-78
2022/09/08 01:27:21;;;;;;;5.30;3.50;;;;;;;12.91;38.80;100240.40;106013;1273;97940;-78
2022/09/08 01:29:59;;;;;;;6.30;3.30;;;;;;;12.91;38.62;100235.85;105987;1273;137860;-78
2022/09/08 01:32:34;;;;;;;6.70;3.20;;;;;;;12.90;38.78;100237.10;106040;1274;112516;-76
2022/09/08 01:35:08;;;;;;;7.00;3.40;;;;;;;12.89;38.89;100237.34;105986;1275;109083;-77
2022/09/08 01:37:40;;;;;;;7.00;3.30;;;;;;;12.89;38.94;100236.45;105946;1274;137814;-77
2022/09/08 01:40:13;;;;;;;5.30;3.30;;;;;;;12.88;38.98;100244.36;105952;1273;98025;-77
2022/09/08 01:42:45;;;;;;;6.20;3.30;;;;;;;12.88;38.87;100242.80;105925;1274;137823;-76
2022/09/08 01:45:17;;;;;;;5.60;3.30;;;;;;;12.88;38.85;100242.80;106093;1274;112471;-78
2022/09/08 01:47:49;;;;;;;5.80;3.30;;;;;;;12.87;39.03;100244.59;105945;1274;138080;-77
2022/09/08 01:50:22;;;;;;;6.70;3.40;;;;;;;12.86;39.06;100244.23;106068;1274;108580;-76
2022/09/08 01:52:54;;;;;;;11.30;3.70;;;;;;;12.87;38.98;100247.02;106011;1274;98541;-77
2022/09/08 01:55:26;;;;;;;7.50;3.30;;;;;;;12.85;38.99;100246.91;106001;1273;138036;-77
2022/09/08 01:57:57;;;;;;;5.60;3.20;;;;;;;12.83;39.13;100241.08;106044;1273;112489;-76
2022/09/08 02:00:30;;;;;;;7.30;3.60;;;;;;;12.83;39.11;100240.56;105907;1272;137932;-77
2022/09/08 02:03:02;;;;;;;8.10;3.50;;;;;;;12.81;39.12;100239.77;106059;1273;109056;-77
2022/09/08 02:05:37;;;;;;;8.70;3.30;;;;;;;12.80;39.15;100241.41;105929;1274;138136;-76
2022/09/08 02:08:10;;;;;;;13.40;4.00;;;;;;;12.78;39.22;100240.45;105984;1274;97835;-77
2022/09/08 02:10:42;;;;;;;8.10;3.60;;;;;;;12.76;39.30;100238.40;105985;1273;111563;-77
2022/09/08 02:13:14;;;;;;;8.40;3.50;;;;;;;12.75;39.13;100233.23;105871;1274;137982;-78
2022/09/08 02:15:46;;;;;;;10.10;3.70;;;;;;;12.72;39.35;100232.09;105988;1273;108854;-76
2022/09/08 02:18:18;;;;;;;8.10;3.60;;;;;;;12.69;39.36;100231.89;105868;1273;138495;-76
2022/09/08 02:20:50;;;;;;;6.80;3.50;;;;;;;12.65;39.46;100229.92;105951;1272;98410;-77
2022/09/08 02:23:22;;;;;;;6.70;3.40;;;;;;;12.63;39.53;100229.19;106031;1273;112798;-76
2022/09/08 02:25:56;;;;;;;8.80;3.40;;;;;;;12.61;39.51;100227.19;106012;1274;108812;-77
2022/09/08 02:28:28;;;;;;;6.50;3.30;;;;;;;12.58;39.58;100227.27;106061;1274;107779;-77
2022/09/08 02:31:02;;;;;;;6.40;3.20;;;;;;;12.56;39.55;100232.25;105953;1273;137922;-76
2022/09/08 02:33:34;;;;;;;6.40;3.40;;;;;;;12.53;39.71;100245.96;106103;1273;97832;-77
2022/09/08 02:36:08;;;;;;;7.70;3.50;;;;;;;12.51;39.72;100249.52;105934;1273;138377;-76
2022/09/08 02:38:41;;;;;;;8.70;3.30;;;;;;;12.49;39.76;100252.42;106108;1273;109068;-76
2022/09/08 02:41:12;;;;;;;8.00;3.60;;;;;;;12.46;39.92;100254.64;106080;1273;108780;-77
2022/09/08 02:43:45;;;;;;;8.50;3.90;;;;;;;12.43;39.92;100251.77;105951;1273;138726;-77
2022/09/08 02:46:17;;;;;;;6.90;3.30;;;;;;;12.42;39.94;100250.09;106052;1273;97931;-76
2022/09/08 02:48:50;;;;;;;5.00;3.40;;;;;;;12.41;40.08;100244.71;105955;1273;137755;-77
2022/09/08 02:51:21;;;;;;;6.40;3.40;;;;;;;12.40;40.13;100239.53;106003;1274;108410;-77
2022/09/08 02:53:55;;;;;;;7.90;3.70;;;;;;;12.38;40.26;100240.27;105875;1273;138903;-76
2022/09/08 02:56:27;;;;;;;7.60;3.80;;;;;;;12.37;40.13;100243.97;106060;1273;97848;-77
2022/09/08 02:58:59;;;;;;;7.40;3.80;;;;;;;12.36;40.32;100247.49;106015;1274;97816;-78
2022/09/08 03:01:31;;;;;;;6.30;3.70;;;;;;;12.35;40.30;100244.25;105954;1274;137883;-78
2022/09/08 03:04:05;;;;;;;7.00;3.90;;;;;;;12.34;40.35;100240.81;106069;1273;107880;-77
2022/09/08 03:06:38;;;;;;;7.60;3.70;;;;;;;12.33;40.33;100244.14;105839;1274;138868;-77
2022/09/08 03:09:10;;;;;;;5.80;3.10;;;;;;;12.32;40.37;100242.95;106096;1273;97873;-78
2022/09/08 03:11:42;;;;;;;12.30;3.80;;;;;;;12.32;40.48;100240.88;105905;1273;138389;-77
2022/09/08 03:14:14;;;;;;;8.30;3.80;;;;;;;12.31;40.38;100242.33;106065;1274;112577;-78
2022/09/08 03:16:46;;;;;;;9.10;3.60;;;;;;;12.30;40.54;100241.84;105986;1274;108859;-77
2022/09/08 03:19:18;;;;;;;5.50;3.60;;;;;;;12.29;40.54;100238.55;105886;1274;137992;-77
2022/09/08 03:21:50;;;;;;;7.10;4.00;;;;;;;12.28;40.54;100235.62;105995;1273;98658;-77
2022/09/08 03:24:22;;;;;;;8.20;3.90;;;;;;;12.26;40.62;100236.75;105893;1274;137821;-77
2022/09/08 03:26:54;;;;;;;7.80;3.80;;;;;;;12.25;40.64;100233.16;106040;1274;111331;-77
2022/09/08 03:29:26;;;;;;;8.70;3.40;;;;;;;12.23;40.67;100230.63;106050;1274;108777;-78
2022/09/08 03:31:58;;;;;;;8.10;3.60;;;;;;;12.21;40.72;100229.46;105992;1273;109199;-77
2022/09/08 03:34:30;;;;;;;6.80;3.60;;;;;;;12.18;40.75;100227.13;106074;1273;97857;-79
2022/09/08 03:37:02;;;;;;;8.20;3.80;;;;;;;12.16;40.77;100221.12;106001;1273;137819;-77
2022/09/08 03:39:34;;;;;;;10.50;3.90;;;;;;;12.13;40.89;100224.00;106070;1274;113954;-79
2022/09/08 03:42:07;;;;;;;6.60;3.60;;;;;;;12.11;40.98;100223.77;105968;1274;138544;-79
2022/09/08 03:44:39;;;;;;;8.30;3.90;;;;;;;12.08;41.05;100218.12;105983;1273;108832;-78
2022/09/08 03:47:11;;;;;;;6.40;3.50;;;;;;;12.05;41.04;100224.31;106020;1274;97810;-77
2022/09/08 03:49:43;;;;;;;6.50;3.50;;;;;;;12.03;41.13;100226.16;105949;1273;138881;-78
2022/09/08 03:52:15;;;;;;;8.70;3.50;;;;;;;12.02;41.14;100226.67;106024;1273;112483;-78
2022/09/08 03:54:50;;;;;;;5.90;3.60;;;;;;;12.00;41.16;100228.33;105987;1273;137860;-77
2022/09/08 03:57:25;;;;;;;7.20;3.50;;;;;;;11.99;41.27;100230.66;106013;1274;107616;-77
2022/09/08 03:59:58;;;;;;;7.90;3.70;;;;;;;11.99;41.22;100236.92;105868;1274;138031;-78
2022/09/08 04:02:32;;;;;;;6.30;3.10;;;;;;;11.98;41.32;100235.57;105985;1273;97848;-77
2022/09/08 04:05:06;;;;;;;9.00;3.60;;;;;;;11.97;41.34;100240.31;106131;1273;112445;-77
2022/09/08 04:07:38;;;;;;;10.50;3.50;;;;;;;11.96;41.40;100238.06;105933;1273;139338;-75
2022/09/08 04:10:13;;;;;;;10.80;3.30;;;;;;;11.96;41.48;100234.95;106035;1274;107935;-77
2022/09/08 04:12:50;;;;;;;9.10;3.10;;;;;;;11.96;41.41;100224.86;105983;1273;138114;-76
2022/09/08 04:15:23;;;;;;;7.40;3.50;;;;;;;11.97;41.44;100224.96;106078;1273;97857;-77
2022/09/08 04:17:55;;;;;;;6.60;3.60;;;;;;;12.05;41.46;100227.65;105878;1273;138000;-76
2022/09/08 04:20:27;;;;;;;8.10;3.30;;;;;;;12.14;41.37;100225.02;106043;1273;109283;-76
2022/09/08 04:22:59;;;;;;;6.90;3.30;;;;;;;12.22;41.42;100223.84;106042;1273;109157;-76
2022/09/08 04:25:31;;;;;;;10.20;3.70;;;;;;;12.30;41.15;100224.39;105959;1273;138230;-75
2022/09/08 04:28:03;;;;;;;6.80;2.90;;;;;;;12.40;41.16;100216.50;106035;1273;97831;-75
2022/09/08 04:30:38;;;;;;;5.00;3.50;;;;;;;12.54;41.06;100214.89;105941;1273;137901;-76
2022/09/08 04:33:10;;;;;;;8.10;3.50;;;;;;;12.71;40.88;100219.92;106040;1274;109016;-74
2022/09/08 04:35:43;;;;;;;8.00;3.70;;;;;;;12.96;40.74;100219.42;105846;1273;138086;-76
2022/09/08 04:38:15;;;;;;;7.70;3.90;;;;;;;13.21;40.63;100215.93;105984;1273;97813;-75
2022/09/08 04:40:47;;;;;;;7.40;3.40;;;;;;;13.45;40.31;100210.88;106091;1273;98203;-76
2022/09/08 04:43:19;;;;;;;6.70;3.10;;;;;;;13.71;40.17;100207.23;105941;1274;138240;-77
2022/09/08 04:45:51;;;;;;;10.40;3.30;;;;;;;13.99;39.81;100210.29;105977;1274;107793;-75
2022/09/08 04:48:23;;;;;;;8.00;3.50;;;;;;;14.33;39.57;100217.59;105978;1273;138425;-77
2022/09/08 04:50:55;;;;;;;6.50;3.00;;;;;;;14.73;39.17;100223.20;106079;1273;97837;-79
2022/09/08 04:53:28;;;;;;;9.80;3.20;;;;;;;15.17;38.55;100221.69;106097;1273;97825;-78
2022/09/08 04:56:03;;;;;;;6.30;3.50;;;;;;;15.61;37.90;100218.16;106102;1271;111429;-77
2022/09/08 04:58:39;;;;;;;6.40;3.10;;;;;;;16.08;37.35;100216.67;106024;1274;109604;-76
2022/09/08 05:01:14;;;;;;;6.30;2.90;;;;;;;16.52;36.48;100212.04;105827;1273;137879;-76
2022/09/08 05:03:47;;;;;;;8.20;3.10;;;;;;;16.90;36.36;100214.81;106030;1273;97889;-74
2022/09/08 05:06:20;;;;;;;5.40;2.80;;;;;;;17.33;35.47;100213.45;105952;1273;138704;-75
2022/09/08 05:08:55;;;;;;;6.50;2.80;;;;;;;17.78;34.53;100212.27;106134;1273;112584;-75
2022/09/08 05:11:29;;;;;;;6.40;2.70;;;;;;;18.17;34.25;100211.92;106150;1273;108915;-76
2022/09/08 05:14:01;;;;;;;8.80;2.90;;;;;;;18.56;33.32;100207.48;106077;1273;109176;-74
2022/09/08 05:16:33;;;;;;;11.70;3.30;;;;;;;18.95;32.76;100211.38;106115;1273;97944;-74
2022/09/08 05:19:07;;;;;;;5.70;2.80;;;;;;;19.47;32.62;100209.45;106016;1273;138693;-73
2022/09/08 05:21:39;;;;;;;8.00;2.80;;;;;;;20.09;31.84;100214.36;106033;1272;112845;-75
2022/09/08 05:24:11;;;;;;;5.90;2.80;;;;;;;20.44;30.51;100216.93;105982;1273;138088;-75
2022/09/08 05:26:43;;;;;;;14.30;3.20;;;;;;;20.65;30.31;100219.63;106001;1273;108816;-74
2022/09/08 05:29:15;;;;;;;11.60;3.10;;;;;;;20.98;29.24;100224.58;105914;1273;97845;-74
2022/09/08 05:31:47;;;;;;;6.90;3.20;;;;;;;21.35;29.51;100223.37;105921;1273;137641;-74
2022/09/08 05:34:19;;;;;;;8.40;2.70;;;;;;;21.82;28.67;100218.98;106082;1273;112527;-74
2022/09/08 05:36:51;;;;;;;8.70;3.00;;;;;;;22.18;28.77;100218.90;105848;1273;139007;-74
2022/09/08 05:39:23;;;;;;;8.90;2.80;;;;;;;22.58;28.14;100222.02;106123;1273;107786;-78
2022/09/08 05:41:55;;;;;;;4.70;2.90;;;;;;;23.02;27.23;100216.08;105988;1274;139256;-79
2022/09/08 05:44:27;;;;;;;7.10;2.70;;;;;;;23.40;26.44;100204.48;106080;1273;97822;-76
2022/09/08 05:46:59;;;;;;;8.10;3.20;;;;;;;23.71;26.15;100206.34;105921;1273;112656;-76
2022/09/08 05:49:31;;;;;;;7.70;3.10;;;;;;;23.87;26.05;100210.47;105957;1273;139600;-76
2022/09/08 05:52:04;;;;;;;7.70;3.20;;;;;;;23.80;25.85;100212.73;105928;1273;108865;-77
2022/09/08 05:54:37;;;;;;;6.10;2.70;;;;;;;23.55;25.78;100206.34;107467;1273;137931;-76
2022/09/08 05:57:09;;;;;;;5.60;2.90;;;;;;;23.26;26.06;100203.56;107603;1273;96383;-74
2022/09/08 05:59:42;;;;;;;9.20;3.30;;;;;;;22.84;26.03;100205.30;106369;1273;138507;-78
2022/09/08 06:02:14;;;;;;;11.70;3.10;;;;;;;22.06;26.29;100202.85;106023;1272;108691;-77
2022/09/08 06:04:46;;;;;;;11.20;3.60;;;;;;;21.25;26.91;100203.27;105955;1273;107808;-73
2022/09/08 06:07:18;;;;;;;8.10;3.30;;;;;;;20.62;27.60;100206.63;105827;1274;137988;-76
2022/09/08 06:09:50;;;;;;;9.40;3.50;;;;;;;20.10;27.85;100215.70;105911;1273;98250;-76
2022/09/08 06:12:22;;;;;;;7.50;3.50;;;;;;;19.58;28.35;100215.02;105951;1273;137848;-75
2022/09/08 06:14:54;;;;;;;17.10;3.20;;;;;;;19.25;28.82;100214.05;106090;1274;107293;-77
2022/09/08 06:17:26;;;;;;;12.00;3.50;;;;;;;19.12;29.31;100207.92;104725;1274;1473376;-80
2022/09/08 06:19:58;;;;;;;11.80;3.60;;;;;;;18.94;29.51;100207.75;105945;1274;97893;-74
2022/09/08 06:22:32;;;;;;;11.50;3.40;;;;;;;18.98;29.73;100204.10;105959;1273;97809;-78
2022/09/08 06:25:09;;;;;;;11.20;3.40;;;;;;;19.15;29.98;100201.05;105846;1274;138328;-77
2022/09/08 06:27:52;;;;;;;9.70;3.40;;;;;;;19.32;29.79;100204.60;106054;1273;108860;-77
2022/09/08 06:30:24;;;;;;;10.60;3.30;;;;;;;19.35;30.08;100200.49;106016;1273;137853;-76
2022/09/08 06:33:20;;;;;;;12.60;3.60;;;;;;;20.41;30.43;100199.96;106907;1273;97851;-77
2022/09/08 06:36:03;;;;;;;5.60;3.00;;;;;;;21.64;28.58;100202.33;105960;1273;138234;-80
2022/09/08 06:38:40;;;;;;;11.60;2.90;;;;;;;21.71;28.32;100209.73;106863;1273;114039;-77
2022/09/08 06:41:16;;;;;;;10.50;3.30;;;;;;;22.54;27.53;100208.54;107485;1273;109112;-79
2022/09/08 06:43:48;;;;;;;;;;;;;;;23.15;26.74;100206.21;107499;1273;138836;-81
2022/09/08 06:46:24;;;;;;;9.70;3.30;;;;;;;23.95;26.36;100208.22;107539;1273;96817;-79
2022/09/08 06:48:57;;;;;;;9.50;3.50;;;;;;;25.10;25.88;100203.21;107437;1274;137660;-78
2022/09/08 06:51:42;;;;;;;14.90;3.80;;;;;;;25.97;25.38;100194.59;107581;1273;112513;-74
2022/09/08 06:54:35;;;;;;;6.80;3.20;;;;;;;26.32;22.96;100202.52;107478;1273;139348;-77
2022/09/08 06:57:19;;;;;;;16.00;3.50;;;;;;;26.29;23.70;100202.30;107593;1273;109690;-78
2022/09/08 07:00:09;;;;;;;9.40;3.20;;;;;;;26.83;23.36;100204.71;107490;1274;138690;-75
2022/09/08 07:03:08;;;;;;;7.50;3.30;;;;;;;27.00;22.84;100207.34;107526;1273;95847;-74
2022/09/08 07:05:58;;;;;;;8.80;3.10;;;;;;;26.97;22.07;100213.48;106512;1273;138478;-74
2022/09/08 07:09:02;;;;;;;8.60;3.10;;;;;;;27.03;22.35;100213.05;105905;1274;108942;-76
2022/09/08 07:11:57;;;;;;;10.90;2.90;;;;;;;27.31;21.80;100209.64;105834;1273;138819;-75
2022/09/08 07:15:05;;;;;;;10.10;3.00;;;;;;;27.20;21.59;100221.02;106055;1273;97869;-75
2022/09/08 07:17:45;;;;;;;11.10;3.00;;;;;;;27.26;21.37;100221.45;105842;1273;138866;-75
2022/09/08 07:20:20;;;;;;;10.00;2.70;;;;;;;27.11;21.08;100223.91;106099;1273;111971;-74
2022/09/08 07:22:58;;;;;;;5.20;2.70;;;;;;;26.47;21.30;100212.23;106066;1273;109000;-76
2022/09/08 07:25:35;;;;;;;11.50;3.20;;;;;;;25.70;22.48;100215.69;105848;1273;140434;-73
2022/09/08 07:28:12;;;;;;;10.70;3.20;;;;;;;25.26;22.75;100210.92;105882;1274;97977;-78
2022/09/08 07:30:49;;;;;;;4.20;2.20;;;;;;;25.23;22.99;100206.58;107515;1273;137759;-74
2022/09/08 07:33:25;;;;;;;9.90;3.20;;;;;;;25.61;23.37;100203.91;106053;1274;112495;-73
2022/09/08 07:36:10;;;;;;;10.30;2.90;;;;;;;26.31;23.24;100192.84;106050;1273;139300;-75
2022/09/08 07:38:46;;;;;;;5.50;2.60;;;;;;;26.84;22.79;100193.21;107679;1273;107667;-74
2022/09/08 07:41:20;;;;;;;;;;;;;;;27.42;22.64;100206.73;106755;1274;97849;-76
2022/09/08 07:43:56;;;;;;;8.50;2.90;;;;;;;27.72;21.50;100200.77;105941;1274;98012;-78
2022/09/08 07:46:45;;;;;;;19.00;3.30;;;;;;;27.85;21.87;100203.65;105980;1274;110898;-82
2022/09/08 07:49:27;;;;;;;8.30;2.40;;;;;;;28.00;20.64;100211.58;105775;1273;140020;-77
2022/09/08 07:52:09;;;;;;;6.80;2.60;;;;;;;27.84;20.97;100220.41;105937;1273;109010;-78
2022/09/08 07:54:57;;;;;;;5.60;2.80;;;;;;;27.89;20.58;100227.23;105849;1273;139435;-77
2022/09/08 07:57:40;;;;;;;6.20;2.30;;;;;;;27.78;20.86;100225.86;106005;1274;97855;-76
2022/09/08 08:00:16;;;;;;;19.30;3.80;;;;;;;27.73;20.18;100228.78;105882;1273;140117;-79
2022/09/08 08:03:05;;;;;;;;;;;;;;;27.32;20.31;100223.84;105798;1274;108377;-76
2022/09/08 08:05:45;;;;;;;9.60;2.80;;;;;;;26.97;20.40;100222.95;105694;1274;124476;-76
2022/09/08 08:08:25;;;;;;;7.70;2.70;;;;;;;26.66;20.72;100224.29;106656;1273;96341;-75
2022/09/08 08:11:07;;;;;;;7.00;2.70;;;;;;;26.53;21.07;100222.63;105932;1274;97727;-77
2022/09/08 08:13:55;;;;;;;9.50;2.70;;;;;;;26.56;21.07;100223.17;107043;1273;138042;-79
2022/09/08 08:16:38;;;;;;;7.70;2.00;;;;;;;26.62;21.17;100219.22;107487;1274;108985;-77
2022/09/08 08:19:23;;;;;;;10.50;2.50;;;;;;;26.67;21.24;100220.79;107324;1274;138698;-76
2022/09/08 08:22:01;;;;;;;7.90;2.30;;;;;;;26.79;21.81;100215.17;107447;1273;96510;-77
2022/09/08 08:24:43;;;;;;;7.10;2.80;;;;;;;26.94;20.98;100215.61;107480;1273;137666;-77
2022/09/08 08:27:25;;;;;;;9.70;2.10;;;;;;;26.89;20.76;100209.90;107629;1273;113067;-77
2022/09/08 08:30:13;;;;;;;14.00;2.90;;;;;;;26.83;20.75;100211.36;107567;1273;139620;-80
2022/09/08 08:32:53;;;;;;;4.90;2.30;;;;;;;26.52;20.20;100211.59;107710;1273;108852;-80
2022/09/08 08:35:34;;;;;;;8.90;2.70;;;;;;;26.36;21.34;100203.86;107622;1274;96219;-79
2022/09/08 08:38:07;;;;;;;9.80;2.20;;;;;;;26.55;21.02;100211.83;107609;1274;96279;-78
2022/09/08 08:40:56;;;;;;;4.40;2.30;;;;;;;26.69;20.86;100221.80;107148;1274;112410;-77
2022/09/08 08:44:05;;;;;;;10.30;2.80;;;;;;;27.01;21.08;100217.72;105862;1274;137915;-79
2022/09/08 08:47:14;;;;;;;9.00;2.50;;;;;;;27.24;20.83;100218.98;106366;1273;108918;-77
2022/09/08 08:50:20;;;;;;;6.10;2.10;;;;;;;27.12;20.39;100211.95;107458;1273;137782;-77
2022/09/08 08:53:10;;;;;;;7.70;2.60;;;;;;;26.94;20.64;100209.48;107629;1273;96091;-76
2022/09/08 08:55:51;;;;;;;8.50;2.50;;;;;;;26.84;20.55;100205.15;107498;1272;137672;-77
2022/09/08 08:58:46;;;;;;;7.30;2.30;;;;;;;26.75;20.89;100200.37;107616;1273;108786;-76
2022/09/08 09:01:45;;;;;;;6.90;2.70;;;;;;;26.54;20.91;100200.00;105866;1274;138068;-74
2022/09/08 09:04:38;;;;;;;7.50;2.30;;;;;;;26.31;20.64;100195.61;106885;1274;96270;-76
2022/09/08 09:07:35;;;;;;;10.60;2.70;;;;;;;26.16;20.89;100195.52;106439;1273;139236;-76
2022/09/08 09:10:24;;;;;;;10.20;2.40;;;;;;;26.05;21.10;100195.20;105996;1273;112309;-75
2022/09/08 09:13:17;;;;;;;4.50;2.20;;;;;;;25.99;20.99;100191.73;105978;1273;138277;-74
2022/09/08 09:16:07;;;;;;;3.80;2.30;;;;;;;26.08;21.45;100185.27;106057;1273;108828;-73
2022/09/08 09:19:34;;;;;;;7.50;2.50;;;;;;;26.27;21.58;100183.98;106046;1273;139319;-74
2022/09/08 09:22:22;;;;;;;4.70;2.00;;;;;;;26.45;21.08;100175.86;105392;1279;97871;-75
2022/09/08 09:25:11;;;;;;;11.40;2.50;;;;;;;26.52;21.28;100171.49;105580;1281;138659;-77
2022/09/08 09:27:47;;;;;;;9.20;2.40;;;;;;;26.55;20.79;100165.63;105614;1281;107863;-79
2022/09/08 09:30:23;;;;;;;10.50;2.50;;;;;;;26.27;20.73;100161.82;105628;1281;139190;-76
2022/09/08 09:33:26;;;;;;;7.60;2.20;;;;;;;26.08;20.89;100162.14;107049;1279;96411;-77
2022/09/08 09:36:24;;;;;;;9.40;2.40;;;;;;;25.98;21.41;100155.52;106892;1279;138067;-77
2022/09/08 09:39:25;;;;;;;7.80;2.30;;;;;;;25.91;21.37;100150.48;107036;1279;112502;-79
2022/09/08 09:42:32;;;;;;;8.70;2.50;;;;;;;25.88;21.41;100146.61;106804;1281;138276;-77
2022/09/08 09:45:30;;;;;;;6.80;2.50;;;;;;;25.83;21.19;100146.41;107046;1280;108906;-78
2022/09/08 09:48:19;;;;;;;4.00;2.40;;;;;;;25.70;21.52;100141.59;106946;1280;138775;-78
2022/09/08 09:51:05;;;;;;;8.60;2.60;;;;;;;25.72;21.53;100141.41;106988;1279;96333;-77
2022/09/08 09:54:00;;;;;;;5.00;2.50;;;;;;;25.75;21.73;100138.47;105814;1279;138819;-76
2022/09/08 09:57:03;;;;;;;8.40;2.30;;;;;;;25.88;21.62;100141.11;105783;1274;109168;-76
2022/09/08 10:00:11;;;;;;;9.50;2.40;;;;;;;26.03;21.61;100145.83;105953;1273;137963;-76
2022/09/08 10:03:07;;;;;;;6.10;2.50;;;;;;;26.08;21.13;100150.86;105993;1273;97946;-80
2022/09/08 10:06:09;;;;;;;11.00;2.60;;;;;;;25.83;20.92;100146.77;106011;1273;138290;-73
2022/09/08 10:09:16;;;;;;;10.30;2.50;;;;;;;25.51;20.63;100146.09;106031;1273;112476;-75
2022/09/08 10:12:19;;;;;;;9.70;3.10;;;;;;;25.07;21.34;100152.27;106199;1273;138455;-78
2022/09/08 10:15:19;;;;;;;8.80;2.50;;;;;;;24.94;21.40;100150.30;107657;1273;108839;-77
2022/09/08 10:18:13;;;;;;;14.60;2.80;;;;;;;24.74;21.36;100153.25;106464;1273;138249;-77
2022/09/08 10:21:18;;;;;;;7.50;2.80;;;;;;;24.36;21.39;100147.84;105923;1274;97742;-76
2022/09/08 10:24:23;;;;;;;9.10;2.40;;;;;;;24.09;21.73;100155.79;105910;1273;137810;-79
2022/09/08 10:27:39;;;;;;;9.00;2.30;;;;;;;23.96;21.94;100156.04;105807;1279;108928;-80
2022/09/08 10:30:43;;;;;;;7.50;2.40;;;;;;;23.70;22.08;100156.92;105551;1278;138513;-77
2022/09/08 10:33:54;;;;;;;5.50;2.50;;;;;;;23.67;22.31;100160.98;105578;1279;97875;-77
2022/09/08 10:36:41;;;;;;;8.20;2.40;;;;;;;23.89;22.51;100153.16;105388;1279;137951;-78
2022/09/08 10:39:26;;;;;;;3.90;2.30;;;;;;;24.17;22.39;100154.89;105637;1279;112590;-79
2022/09/08 10:42:39;;;;;;;6.60;2.40;;;;;;;24.32;22.38;100154.83;105540;1279;138255;-78
2022/09/08 10:45:40;;;;;;;9.50;2.40;;;;;;;24.46;21.93;100153.46;105694;1279;109026;-77
2022/09/08 10:48:38;;;;;;;6.10;2.30;;;;;;;24.48;21.72;100151.55;105512;1279;138423;-78
2022/09/08 10:51:52;;;;;;;3.70;2.10;;;;;;;24.50;22.14;100146.19;105495;1279;97942;-79
2022/09/08 10:54:55;;;;;;;7.10;2.40;;;;;;;24.52;22.15;100135.69;104786;1287;137771;-76
2022/09/08 10:57:43;;;;;;;9.00;2.70;;;;;;;24.48;22.34;100133.60;104878;1286;107948;-77
2022/09/08 11:00:20;;;;;;;4.40;2.40;;;;;;;24.55;22.48;100135.73;104940;1285;139470;-79
2022/09/08 11:03:25;;;;;;;11.50;2.90;;;;;;;24.43;21.81;100131.06;104845;1287;97925;-78
2022/09/08 11:06:03;;;;;;;4.70;2.30;;;;;;;24.03;21.92;100133.02;105447;1281;138238;-80
2022/09/08 11:09:02;;;;;;;6.90;2.40;;;;;;;23.80;22.43;100127.10;105580;1279;111433;-75
2022/09/08 11:12:16;;;;;;;8.40;2.10;;;;;;;23.79;22.82;100122.75;105382;1281;138676;-77
2022/09/08 11:15:26;;;;;;;4.40;2.30;;;;;;;23.91;23.08;100119.89;105610;1281;108720;-80
2022/09/08 11:18:18;;;;;;;7.40;2.50;;;;;;;24.06;23.16;100111.21;105446;1279;138380;-77
2022/09/08 11:20:53;;;;;;;8.00;2.10;;;;;;;24.26;22.88;100118.54;105562;1279;97733;-74
2022/09/08 11:23:46;;;;;;;6.30;1.90;;;;;;;24.19;22.44;100110.44;105334;1281;111303;-76
2022/09/08 11:26:35;;;;;;;8.50;2.50;;;;;;;24.02;22.18;100106.46;105614;1279;108983;-77
2022/09/08 11:29:10;;;;;;;11.80;2.00;;;;;;;23.87;22.12;100113.34;105463;1281;109159;-76
2022/09/08 11:32:04;;;;;;;8.90;1.90;;;;;;;23.79;22.59;100105.90;105473;1273;138237;-77
2022/09/08 11:34:52;;;;;;;7.60;2.00;;;;;;;23.91;22.72;100096.48;106059;1273;97721;-75
2022/09/08 11:38:01;;;;;;;7.60;2.00;;;;;;;24.02;22.56;100090.09;106026;1273;137958;-75
2022/09/08 11:41:10;;;;;;;7.40;1.70;;;;;;;24.03;22.58;100089.81;105680;1279;108747;-76
2022/09/08 11:43:57;;;;;;;6.50;1.80;;;;;;;23.93;22.38;100097.33;105615;1279;137905;-75
2022/09/08 11:46:47;;;;;;;3.60;1.50;;;;;;;23.79;22.56;100096.45;105604;1278;97977;-75
2022/09/08 11:49:42;;;;;;;11.20;2.00;;;;;;;23.80;22.58;100100.48;105470;1279;138002;-75
2022/09/08 11:52:50;;;;;;;3.50;1.90;;;;;;;23.60;22.48;100103.41;106092;1279;110925;-76
2022/09/08 11:56:16;;;;;;;7.70;1.70;;;;;;;23.45;22.58;100091.85;105486;1277;137923;-75
2022/09/08 11:59:03;;;;;;;6.20;2.10;;;;;;;23.46;22.97;100091.44;105666;1279;107892;-77
2022/09/08 12:01:39;;;;;;;;;;;;;;;23.41;22.93;100085.48;105650;1279;138689;-76
2022/09/08 12:04:42;;;;;;;11.40;1.70;;;;;;;23.35;23.17;100075.55;105568;1278;97835;-78
2022/09/08 12:07:37;;;;;;;10.50;1.60;;;;;;;23.26;22.96;100077.92;105559;1279;138240;-77
2022/09/08 12:10:45;;;;;;;6.00;2.00;;;;;;;23.17;22.89;100073.38;105682;1279;108851;-77
2022/09/08 12:13:23;;;;;;;8.10;1.90;;;;;;;22.99;22.75;100075.37;105761;1273;137840;-78
2022/09/08 12:16:09;;;;;;;5.80;1.80;;;;;;;22.71;22.77;100071.83;106100;1273;97824;-80
2022/09/08 12:19:00;;;;;;;7.10;1.90;;;;;;;22.50;22.94;100058.95;105945;1273;137667;-79
2022/09/08 12:21:59;;;;;;;6.20;1.70;;;;;;;22.38;23.38;100045.31;106037;1273;112013;-77